sensor_id;sensor_type;location;lat;lon;timestamp;P1;durP1;ratioP1;P2;durP2;ratioP2
5333;SDS011;2689;50.954;7.116;2023-11-18T00:02:11;37.10;;;19.33;;
5333;SDS011;2689;50.954;7.116;2023-11-18T00:04:46;36.70;;;17.90;;
5333;SDS011;2689;50.954;7.116;2023-11-18T00:07:12;36.20;;;17.97;;
5333;SDS011;2689;50.954;7.116;2023-11-18T00:09:39;33.23;;;18.27;;
5333;SDS011;2689;50.954;7.116;2023-11-18T00:12:08;32.33;;;17.87;;
5333;SDS011;2689;50.954;7.116;2023-11-18T00:14:36;40.80;;;19.93;;
5333;SDS011;2689;50.954;7.116;2023-11-18T00:17:03;37.67;;;19.30;;
5333;SDS011;2689;50.954;7.116;2023-11-18T00:19:30;32.90;;;18.27;;
5333;SDS011;2689;50.954;7.116;2023-11-18T00:21:57;38.10;;;20.03;;
5333;SDS011;2689;50.954;7.116;2023-11-18T00:24:23;33.60;;;18.87;;
5333;SDS011;2689;50.954;7.116;2023-11-18T00:26:50;35.23;;;19.07;;
5333;SDS011;2689;50.954;7.116;2023-11-18T00:29:17;33.00;;;18.03;;
5333;SDS011;2689;50.954;7.116;2023-11-18T00:31:45;33.53;;;17.10;;
5333;SDS011;2689;50.954;7.116;2023-11-18T00:34:11;31.00;;;17.97;;
5333;SDS011;2689;50.954;7.116;2023-11-18T00:36:38;29.53;;;17.70;;
5333;SDS011;2689;50.954;7.116;2023-11-18T00:39:05;32.10;;;16.87;;
5333;SDS011;2689;50.954;7.116;2023-11-18T00:41:32;36.90;;;19.20;;
5333;SDS011;2689;50.954;7.116;2023-11-18T00:43:58;29.93;;;17.20;;
5333;SDS011;2689;50.954;7.116;2023-11-18T00:46:25;38.07;;;20.67;;
5333;SDS011;2689;50.954;7.116;2023-11-18T00:48:53;27.97;;;16.43;;
5333;SDS011;2689;50.954;7.116;2023-11-18T00:51:23;33.90;;;17.23;;
5333;SDS011;2689;50.954;7.116;2023-11-18T00:53:51;34.40;;;18.77;;
5333;SDS011;2689;50.954;7.116;2023-11-18T00:56:19;33.60;;;18.50;;
5333;SDS011;2689;50.954;7.116;2023-11-18T00:58:46;35.67;;;18.57;;
5333;SDS011;2689;50.954;7.116;2023-11-18T01:01:13;33.93;;;17.67;;
5333;SDS011;2689;50.954;7.116;2023-11-18T01:03:43;30.63;;;16.53;;
5333;SDS011;2689;50.954;7.116;2023-11-18T01:06:16;35.13;;;19.13;;
5333;SDS011;2689;50.954;7.116;2023-11-18T01:08:43;34.80;;;18.53;;
5333;SDS011;2689;50.954;7.116;2023-11-18T01:11:15;34.07;;;16.97;;
5333;SDS011;2689;50.954;7.116;2023-11-18T01:13:44;31.13;;;15.10;;
5333;SDS011;2689;50.954;7.116;2023-11-18T01:16:11;36.27;;;19.10;;
5333;SDS011;2689;50.954;7.116;2023-11-18T01:18:38;28.73;;;14.73;;
5333;SDS011;2689;50.954;7.116;2023-11-18T01:21:05;35.80;;;17.00;;
5333;SDS011;2689;50.954;7.116;2023-11-18T01:23:35;38.63;;;18.00;;
5333;SDS011;2689;50.954;7.116;2023-11-18T01:26:02;28.10;;;15.17;;
5333;SDS011;2689;50.954;7.116;2023-11-18T01:28:36;34.83;;;17.83;;
5333;SDS011;2689;50.954;7.116;2023-11-18T01:31:06;34.87;;;17.40;;
5333;SDS011;2689;50.954;7.116;2023-11-18T01:33:34;32.90;;;17.00;;
5333;SDS011;2689;50.954;7.116;2023-11-18T01:36:02;37.10;;;17.67;;
5333;SDS011;2689;50.954;7.116;2023-11-18T01:38:31;33.30;;;18.07;;
5333;SDS011;2689;50.954;7.116;2023-11-18T01:41:00;35.53;;;18.60;;
5333;SDS011;2689;50.954;7.116;2023-11-18T01:43:28;29.23;;;17.00;;
5333;SDS011;2689;50.954;7.116;2023-11-18T01:45:56;31.50;;;17.10;;
5333;SDS011;2689;50.954;7.116;2023-11-18T01:48:26;36.07;;;17.73;;
5333;SDS011;2689;50.954;7.116;2023-11-18T01:50:55;33.23;;;16.07;;
5333;SDS011;2689;50.954;7.116;2023-11-18T01:53:23;33.53;;;16.60;;
5333;SDS011;2689;50.954;7.116;2023-11-18T01:55:50;32.33;;;16.07;;
5333;SDS011;2689;50.954;7.116;2023-11-18T01:58:18;32.47;;;17.50;;
5333;SDS011;2689;50.954;7.116;2023-11-18T02:00:48;30.10;;;15.40;;
5333;SDS011;2689;50.954;7.116;2023-11-18T02:03:16;36.60;;;18.03;;
5333;SDS011;2689;50.954;7.116;2023-11-18T02:05:43;34.13;;;17.13;;
5333;SDS011;2689;50.954;7.116;2023-11-18T02:08:10;36.10;;;16.57;;
5333;SDS011;2689;50.954;7.116;2023-11-18T02:10:40;35.53;;;17.90;;
5333;SDS011;2689;50.954;7.116;2023-11-18T02:13:16;30.53;;;16.93;;
5333;SDS011;2689;50.954;7.116;2023-11-18T02:15:52;37.17;;;18.87;;
5333;SDS011;2689;50.954;7.116;2023-11-18T02:18:22;32.30;;;17.47;;
5333;SDS011;2689;50.954;7.116;2023-11-18T02:20:52;35.50;;;18.50;;
5333;SDS011;2689;50.954;7.116;2023-11-18T02:23:22;27.10;;;14.97;;
5333;SDS011;2689;50.954;7.116;2023-11-18T02:25:53;30.47;;;16.80;;
5333;SDS011;2689;50.954;7.116;2023-11-18T02:28:21;34.97;;;16.77;;
5333;SDS011;2689;50.954;7.116;2023-11-18T02:30:51;32.90;;;17.70;;
5333;SDS011;2689;50.954;7.116;2023-11-18T02:33:24;27.83;;;16.13;;
5333;SDS011;2689;50.954;7.116;2023-11-18T02:35:59;32.37;;;16.87;;
5333;SDS011;2689;50.954;7.116;2023-11-18T02:38:33;31.57;;;15.77;;
5333;SDS011;2689;50.954;7.116;2023-11-18T02:41:09;30.63;;;16.10;;
5333;SDS011;2689;50.954;7.116;2023-11-18T02:43:39;30.17;;;16.33;;
5333;SDS011;2689;50.954;7.116;2023-11-18T02:46:06;34.47;;;17.50;;
5333;SDS011;2689;50.954;7.116;2023-11-18T02:48:37;33.10;;;17.00;;
5333;SDS011;2689;50.954;7.116;2023-11-18T02:51:06;32.23;;;17.40;;
5333;SDS011;2689;50.954;7.116;2023-11-18T02:53:34;34.13;;;17.03;;
5333;SDS011;2689;50.954;7.116;2023-11-18T02:56:00;32.77;;;17.30;;
5333;SDS011;2689;50.954;7.116;2023-11-18T02:58:31;27.07;;;16.57;;
5333;SDS011;2689;50.954;7.116;2023-11-18T03:00:59;32.80;;;17.43;;
5333;SDS011;2689;50.954;7.116;2023-11-18T03:03:26;30.87;;;17.80;;
5333;SDS011;2689;50.954;7.116;2023-11-18T03:05:53;31.43;;;17.27;;
5333;SDS011;2689;50.954;7.116;2023-11-18T03:08:22;22.90;;;10.77;;
5333;SDS011;2689;50.954;7.116;2023-11-18T03:10:49;31.03;;;17.80;;
5333;SDS011;2689;50.954;7.116;2023-11-18T03:13:17;30.23;;;17.30;;
5333;SDS011;2689;50.954;7.116;2023-11-18T03:15:47;32.47;;;18.90;;
5333;SDS011;2689;50.954;7.116;2023-11-18T03:18:16;32.07;;;16.90;;
5333;SDS011;2689;50.954;7.116;2023-11-18T03:20:43;32.20;;;17.77;;
5333;SDS011;2689;50.954;7.116;2023-11-18T03:23:10;31.70;;;18.33;;
5333;SDS011;2689;50.954;7.116;2023-11-18T03:25:37;29.30;;;17.30;;
5333;SDS011;2689;50.954;7.116;2023-11-18T03:28:04;43.57;;;18.50;;
5333;SDS011;2689;50.954;7.116;2023-11-18T03:30:32;31.90;;;17.70;;
5333;SDS011;2689;50.954;7.116;2023-11-18T03:33:04;33.47;;;17.17;;
5333;SDS011;2689;50.954;7.116;2023-11-18T03:35:32;34.00;;;17.70;;
5333;SDS011;2689;50.954;7.116;2023-11-18T03:37:59;33.50;;;18.07;;
5333;SDS011;2689;50.954;7.116;2023-11-18T03:40:26;30.50;;;17.60;;
5333;SDS011;2689;50.954;7.116;2023-11-18T03:42:54;29.10;;;15.87;;
5333;SDS011;2689;50.954;7.116;2023-11-18T03:45:28;31.97;;;15.43;;
5333;SDS011;2689;50.954;7.116;2023-11-18T03:47:55;31.43;;;17.47;;
5333;SDS011;2689;50.954;7.116;2023-11-18T03:50:26;33.77;;;15.27;;
5333;SDS011;2689;50.954;7.116;2023-11-18T03:52:52;30.33;;;16.03;;
5333;SDS011;2689;50.954;7.116;2023-11-18T03:55:19;33.97;;;18.20;;
5333;SDS011;2689;50.954;7.116;2023-11-18T03:57:46;25.87;;;13.97;;
5333;SDS011;2689;50.954;7.116;2023-11-18T04:00:15;28.80;;;15.63;;
5333;SDS011;2689;50.954;7.116;2023-11-18T04:02:42;30.60;;;17.00;;
5333;SDS011;2689;50.954;7.116;2023-11-18T04:05:11;33.13;;;17.53;;
5333;SDS011;2689;50.954;7.116;2023-11-18T04:07:39;33.73;;;16.63;;
5333;SDS011;2689;50.954;7.116;2023-11-18T04:10:07;30.90;;;16.77;;
5333;SDS011;2689;50.954;7.116;2023-11-18T04:12:35;28.70;;;17.00;;
5333;SDS011;2689;50.954;7.116;2023-11-18T04:15:02;33.40;;;16.77;;
5333;SDS011;2689;50.954;7.116;2023-11-18T04:17:31;28.47;;;16.53;;
5333;SDS011;2689;50.954;7.116;2023-11-18T04:19:57;30.67;;;17.20;;
5333;SDS011;2689;50.954;7.116;2023-11-18T04:22:24;30.10;;;16.10;;
5333;SDS011;2689;50.954;7.116;2023-11-18T04:24:52;26.30;;;16.53;;
5333;SDS011;2689;50.954;7.116;2023-11-18T04:27:20;28.27;;;15.13;;
5333;SDS011;2689;50.954;7.116;2023-11-18T04:29:47;26.57;;;15.57;;
5333;SDS011;2689;50.954;7.116;2023-11-18T04:32:14;30.77;;;15.63;;
5333;SDS011;2689;50.954;7.116;2023-11-18T04:34:41;28.60;;;16.13;;
5333;SDS011;2689;50.954;7.116;2023-11-18T04:37:07;28.10;;;15.87;;
5333;SDS011;2689;50.954;7.116;2023-11-18T04:39:34;26.10;;;16.40;;
5333;SDS011;2689;50.954;7.116;2023-11-18T04:42:03;28.53;;;17.37;;
5333;SDS011;2689;50.954;7.116;2023-11-18T04:44:30;26.13;;;14.97;;
5333;SDS011;2689;50.954;7.116;2023-11-18T04:46:57;33.30;;;15.70;;
5333;SDS011;2689;50.954;7.116;2023-11-18T04:49:24;27.10;;;15.20;;
5333;SDS011;2689;50.954;7.116;2023-11-18T04:51:51;29.20;;;16.00;;
5333;SDS011;2689;50.954;7.116;2023-11-18T04:54:18;25.23;;;15.47;;
5333;SDS011;2689;50.954;7.116;2023-11-18T04:56:45;28.77;;;16.97;;
5333;SDS011;2689;50.954;7.116;2023-11-18T04:59:14;25.33;;;15.73;;
5333;SDS011;2689;50.954;7.116;2023-11-18T05:01:42;28.53;;;16.37;;
5333;SDS011;2689;50.954;7.116;2023-11-18T05:04:09;26.97;;;15.57;;
5333;SDS011;2689;50.954;7.116;2023-11-18T05:06:36;22.27;;;14.97;;
5333;SDS011;2689;50.954;7.116;2023-11-18T05:09:03;30.10;;;16.63;;
5333;SDS011;2689;50.954;7.116;2023-11-18T05:11:33;24.33;;;14.60;;
5333;SDS011;2689;50.954;7.116;2023-11-18T05:14:00;30.13;;;16.07;;
5333;SDS011;2689;50.954;7.116;2023-11-18T05:16:29;23.07;;;14.03;;
5333;SDS011;2689;50.954;7.116;2023-11-18T05:18:56;25.17;;;15.40;;
5333;SDS011;2689;50.954;7.116;2023-11-18T05:21:23;28.37;;;14.83;;
5333;SDS011;2689;50.954;7.116;2023-11-18T05:23:50;27.23;;;14.40;;
5333;SDS011;2689;50.954;7.116;2023-11-18T05:26:17;26.27;;;15.20;;
5333;SDS011;2689;50.954;7.116;2023-11-18T05:28:44;26.20;;;16.00;;
5333;SDS011;2689;50.954;7.116;2023-11-18T05:31:11;24.83;;;14.63;;
5333;SDS011;2689;50.954;7.116;2023-11-18T05:33:39;23.83;;;16.17;;
5333;SDS011;2689;50.954;7.116;2023-11-18T05:36:06;25.70;;;15.30;;
5333;SDS011;2689;50.954;7.116;2023-11-18T05:38:33;26.50;;;15.77;;
5333;SDS011;2689;50.954;7.116;2023-11-18T05:41:01;25.50;;;15.17;;
5333;SDS011;2689;50.954;7.116;2023-11-18T05:43:29;29.13;;;16.63;;
5333;SDS011;2689;50.954;7.116;2023-11-18T05:46:01;27.67;;;16.70;;
5333;SDS011;2689;50.954;7.116;2023-11-18T05:48:44;29.03;;;14.70;;
5333;SDS011;2689;50.954;7.116;2023-11-18T05:51:11;24.53;;;15.10;;
5333;SDS011;2689;50.954;7.116;2023-11-18T05:53:41;25.07;;;15.40;;
5333;SDS011;2689;50.954;7.116;2023-11-18T05:56:10;23.73;;;14.43;;
5333;SDS011;2689;50.954;7.116;2023-11-18T05:58:37;23.93;;;15.00;;
5333;SDS011;2689;50.954;7.116;2023-11-18T06:01:04;26.50;;;15.97;;
5333;SDS011;2689;50.954;7.116;2023-11-18T06:03:34;24.20;;;14.83;;
5333;SDS011;2689;50.954;7.116;2023-11-18T06:06:06;26.10;;;16.10;;
5333;SDS011;2689;50.954;7.116;2023-11-18T06:08:34;22.60;;;15.53;;
5333;SDS011;2689;50.954;7.116;2023-11-18T06:11:01;23.97;;;14.93;;
5333;SDS011;2689;50.954;7.116;2023-11-18T06:13:37;25.13;;;16.40;;
5333;SDS011;2689;50.954;7.116;2023-11-18T06:16:07;22.20;;;15.00;;
5333;SDS011;2689;50.954;7.116;2023-11-18T06:18:40;22.87;;;15.20;;
5333;SDS011;2689;50.954;7.116;2023-11-18T06:21:11;22.90;;;13.90;;
5333;SDS011;2689;50.954;7.116;2023-11-18T06:23:39;24.60;;;14.60;;
5333;SDS011;2689;50.954;7.116;2023-11-18T06:26:06;21.33;;;14.57;;
5333;SDS011;2689;50.954;7.116;2023-11-18T06:28:35;22.53;;;14.30;;
5333;SDS011;2689;50.954;7.116;2023-11-18T06:31:02;22.00;;;14.60;;
5333;SDS011;2689;50.954;7.116;2023-11-18T06:33:29;22.73;;;15.27;;
5333;SDS011;2689;50.954;7.116;2023-11-18T06:35:57;22.47;;;11.70;;
5333;SDS011;2689;50.954;7.116;2023-11-18T06:38:26;23.00;;;14.47;;
5333;SDS011;2689;50.954;7.116;2023-11-18T06:40:55;22.50;;;14.37;;
5333;SDS011;2689;50.954;7.116;2023-11-18T06:43:27;25.23;;;14.50;;
5333;SDS011;2689;50.954;7.116;2023-11-18T06:46:01;20.67;;;13.57;;
5333;SDS011;2689;50.954;7.116;2023-11-18T06:48:28;26.40;;;14.30;;
5333;SDS011;2689;50.954;7.116;2023-11-18T06:50:54;21.30;;;13.40;;
5333;SDS011;2689;50.954;7.116;2023-11-18T06:53:21;25.83;;;13.40;;
5333;SDS011;2689;50.954;7.116;2023-11-18T06:55:50;24.23;;;13.40;;
5333;SDS011;2689;50.954;7.116;2023-11-18T06:58:17;22.30;;;14.30;;
5333;SDS011;2689;50.954;7.116;2023-11-18T07:00:44;22.47;;;12.67;;
5333;SDS011;2689;50.954;7.116;2023-11-18T07:03:13;23.00;;;13.67;;
5333;SDS011;2689;50.954;7.116;2023-11-18T07:05:40;19.60;;;12.20;;
5333;SDS011;2689;50.954;7.116;2023-11-18T07:08:08;19.60;;;12.37;;
5333;SDS011;2689;50.954;7.116;2023-11-18T07:10:35;22.90;;;12.80;;
5333;SDS011;2689;50.954;7.116;2023-11-18T07:13:04;18.30;;;12.10;;
5333;SDS011;2689;50.954;7.116;2023-11-18T07:15:33;23.60;;;13.23;;
5333;SDS011;2689;50.954;7.116;2023-11-18T07:18:01;27.07;;;14.43;;
5333;SDS011;2689;50.954;7.116;2023-11-18T07:20:27;17.23;;;12.30;;
5333;SDS011;2689;50.954;7.116;2023-11-18T07:22:54;23.00;;;14.80;;
5333;SDS011;2689;50.954;7.116;2023-11-18T07:25:21;21.63;;;13.50;;
5333;SDS011;2689;50.954;7.116;2023-11-18T07:27:48;19.47;;;12.50;;
5333;SDS011;2689;50.954;7.116;2023-11-18T07:30:18;17.57;;;11.97;;
5333;SDS011;2689;50.954;7.116;2023-11-18T07:32:45;22.47;;;13.70;;
5333;SDS011;2689;50.954;7.116;2023-11-18T07:35:12;20.17;;;11.40;;
5333;SDS011;2689;50.954;7.116;2023-11-18T07:37:42;17.67;;;12.47;;
5333;SDS011;2689;50.954;7.116;2023-11-18T07:40:11;17.03;;;11.77;;
5333;SDS011;2689;50.954;7.116;2023-11-18T07:42:40;20.00;;;13.00;;
5333;SDS011;2689;50.954;7.116;2023-11-18T07:45:07;16.23;;;10.63;;
5333;SDS011;2689;50.954;7.116;2023-11-18T07:47:43;18.57;;;11.70;;
5333;SDS011;2689;50.954;7.116;2023-11-18T07:50:10;18.50;;;12.83;;
5333;SDS011;2689;50.954;7.116;2023-11-18T07:52:38;13.73;;;9.83;;
5333;SDS011;2689;50.954;7.116;2023-11-18T07:55:06;21.87;;;13.30;;
5333;SDS011;2689;50.954;7.116;2023-11-18T07:57:34;17.47;;;11.10;;
5333;SDS011;2689;50.954;7.116;2023-11-18T08:00:02;18.07;;;12.17;;
5333;SDS011;2689;50.954;7.116;2023-11-18T08:02:34;17.33;;;12.07;;
5333;SDS011;2689;50.954;7.116;2023-11-18T08:05:03;18.07;;;11.97;;
5333;SDS011;2689;50.954;7.116;2023-11-18T08:07:32;18.27;;;12.53;;
5333;SDS011;2689;50.954;7.116;2023-11-18T08:09:59;18.00;;;12.80;;
5333;SDS011;2689;50.954;7.116;2023-11-18T08:12:28;17.40;;;10.70;;
5333;SDS011;2689;50.954;7.116;2023-11-18T08:14:55;16.50;;;11.40;;
5333;SDS011;2689;50.954;7.116;2023-11-18T08:17:23;18.33;;;11.93;;
5333;SDS011;2689;50.954;7.116;2023-11-18T08:19:50;18.53;;;12.80;;
5333;SDS011;2689;50.954;7.116;2023-11-18T08:22:19;21.53;;;12.30;;
5333;SDS011;2689;50.954;7.116;2023-11-18T08:24:48;13.63;;;9.77;;
5333;SDS011;2689;50.954;7.116;2023-11-18T08:27:16;19.57;;;11.40;;
5333;SDS011;2689;50.954;7.116;2023-11-18T08:29:45;18.80;;;10.23;;
5333;SDS011;2689;50.954;7.116;2023-11-18T08:32:13;17.63;;;11.40;;
5333;SDS011;2689;50.954;7.116;2023-11-18T08:34:40;19.60;;;10.80;;
5333;SDS011;2689;50.954;7.116;2023-11-18T08:37:07;14.70;;;10.97;;
5333;SDS011;2689;50.954;7.116;2023-11-18T08:39:36;17.70;;;12.30;;
5333;SDS011;2689;50.954;7.116;2023-11-18T08:42:03;11.33;;;6.57;;
5333;SDS011;2689;50.954;7.116;2023-11-18T08:44:32;16.07;;;11.53;;
5333;SDS011;2689;50.954;7.116;2023-11-18T08:47:01;14.30;;;9.80;;
5333;SDS011;2689;50.954;7.116;2023-11-18T08:49:33;13.80;;;9.73;;
5333;SDS011;2689;50.954;7.116;2023-11-18T08:52:00;16.90;;;10.73;;
5333;SDS011;2689;50.954;7.116;2023-11-18T08:54:27;14.07;;;10.30;;
5333;SDS011;2689;50.954;7.116;2023-11-18T08:57:03;15.20;;;9.70;;
5333;SDS011;2689;50.954;7.116;2023-11-18T08:59:45;15.57;;;10.93;;
5333;SDS011;2689;50.954;7.116;2023-11-18T09:02:12;14.60;;;11.50;;
5333;SDS011;2689;50.954;7.116;2023-11-18T09:04:40;17.00;;;10.00;;
5333;SDS011;2689;50.954;7.116;2023-11-18T09:07:08;17.27;;;11.67;;
5333;SDS011;2689;50.954;7.116;2023-11-18T09:09:35;17.67;;;10.30;;
5333;SDS011;2689;50.954;7.116;2023-11-18T09:12:06;11.97;;;9.23;;
5333;SDS011;2689;50.954;7.116;2023-11-18T09:14:33;15.50;;;10.33;;
5333;SDS011;2689;50.954;7.116;2023-11-18T09:17:00;14.90;;;10.37;;
5333;SDS011;2689;50.954;7.116;2023-11-18T09:19:27;16.47;;;9.10;;
5333;SDS011;2689;50.954;7.116;2023-11-18T09:21:55;15.60;;;9.90;;
5333;SDS011;2689;50.954;7.116;2023-11-18T09:24:21;16.20;;;9.80;;
5333;SDS011;2689;50.954;7.116;2023-11-18T09:26:50;16.30;;;10.30;;
5333;SDS011;2689;50.954;7.116;2023-11-18T09:29:19;14.30;;;9.50;;
5333;SDS011;2689;50.954;7.116;2023-11-18T09:31:49;14.57;;;10.37;;
5333;SDS011;2689;50.954;7.116;2023-11-18T09:34:17;12.00;;;8.47;;
5333;SDS011;2689;50.954;7.116;2023-11-18T09:36:52;11.80;;;8.80;;
5333;SDS011;2689;50.954;7.116;2023-11-18T09:39:20;14.63;;;8.90;;
5333;SDS011;2689;50.954;7.116;2023-11-18T09:42:03;15.80;;;9.57;;
5333;SDS011;2689;50.954;7.116;2023-11-18T09:44:37;15.03;;;9.70;;
5333;SDS011;2689;50.954;7.116;2023-11-18T09:47:04;11.23;;;7.70;;
5333;SDS011;2689;50.954;7.116;2023-11-18T09:49:39;13.53;;;9.70;;
5333;SDS011;2689;50.954;7.116;2023-11-18T09:52:12;12.70;;;8.83;;
5333;SDS011;2689;50.954;7.116;2023-11-18T09:54:45;12.77;;;8.70;;
5333;SDS011;2689;50.954;7.116;2023-11-18T09:57:23;14.27;;;9.50;;
5333;SDS011;2689;50.954;7.116;2023-11-18T10:00:02;10.47;;;7.20;;
5333;SDS011;2689;50.954;7.116;2023-11-18T10:02:46;11.50;;;8.40;;
5333;SDS011;2689;50.954;7.116;2023-11-18T10:05:15;10.93;;;8.50;;
5333;SDS011;2689;50.954;7.116;2023-11-18T10:07:46;6.07;;;3.60;;
5333;SDS011;2689;50.954;7.116;2023-11-18T10:10:13;12.80;;;8.03;;
5333;SDS011;2689;50.954;7.116;2023-11-18T10:12:41;15.43;;;9.90;;
5333;SDS011;2689;50.954;7.116;2023-11-18T10:15:11;11.60;;;7.73;;
5333;SDS011;2689;50.954;7.116;2023-11-18T10:17:44;12.93;;;8.43;;
5333;SDS011;2689;50.954;7.116;2023-11-18T10:20:20;11.10;;;8.60;;
5333;SDS011;2689;50.954;7.116;2023-11-18T10:22:54;13.80;;;7.50;;
5333;SDS011;2689;50.954;7.116;2023-11-18T10:25:32;13.73;;;7.97;;
5333;SDS011;2689;50.954;7.116;2023-11-18T10:28:00;14.30;;;8.87;;
5333;SDS011;2689;50.954;7.116;2023-11-18T10:30:28;8.27;;;5.27;;
5333;SDS011;2689;50.954;7.116;2023-11-18T10:32:57;10.83;;;7.43;;
5333;SDS011;2689;50.954;7.116;2023-11-18T10:35:31;9.60;;;5.73;;
5333;SDS011;2689;50.954;7.116;2023-11-18T10:38:01;10.53;;;7.63;;
5333;SDS011;2689;50.954;7.116;2023-11-18T10:40:31;13.47;;;6.40;;
5333;SDS011;2689;50.954;7.116;2023-11-18T10:43:00;12.63;;;7.50;;
5333;SDS011;2689;50.954;7.116;2023-11-18T10:45:31;13.10;;;6.50;;
5333;SDS011;2689;50.954;7.116;2023-11-18T10:47:58;7.63;;;5.73;;
5333;SDS011;2689;50.954;7.116;2023-11-18T10:50:26;8.17;;;6.53;;
5333;SDS011;2689;50.954;7.116;2023-11-18T10:52:57;11.30;;;6.53;;
5333;SDS011;2689;50.954;7.116;2023-11-18T10:55:34;16.00;;;8.70;;
5333;SDS011;2689;50.954;7.116;2023-11-18T10:58:02;10.60;;;7.07;;
5333;SDS011;2689;50.954;7.116;2023-11-18T11:00:29;5.60;;;4.47;;
5333;SDS011;2689;50.954;7.116;2023-11-18T11:03:11;10.80;;;7.57;;
5333;SDS011;2689;50.954;7.116;2023-11-18T11:05:39;12.63;;;5.83;;
5333;SDS011;2689;50.954;7.116;2023-11-18T11:08:08;8.20;;;6.10;;
5333;SDS011;2689;50.954;7.116;2023-11-18T11:10:39;11.93;;;5.83;;
5333;SDS011;2689;50.954;7.116;2023-11-18T11:13:07;8.57;;;6.90;;
5333;SDS011;2689;50.954;7.116;2023-11-18T11:15:40;6.73;;;5.17;;
5333;SDS011;2689;50.954;7.116;2023-11-18T11:18:11;9.30;;;6.70;;
5333;SDS011;2689;50.954;7.116;2023-11-18T11:20:50;6.90;;;5.47;;
5333;SDS011;2689;50.954;7.116;2023-11-18T11:23:30;8.60;;;4.50;;
5333;SDS011;2689;50.954;7.116;2023-11-18T11:26:12;8.23;;;5.70;;
5333;SDS011;2689;50.954;7.116;2023-11-18T11:28:47;6.77;;;4.83;;
5333;SDS011;2689;50.954;7.116;2023-11-18T11:31:26;7.23;;;5.07;;
5333;SDS011;2689;50.954;7.116;2023-11-18T11:33:59;8.03;;;5.60;;
5333;SDS011;2689;50.954;7.116;2023-11-18T11:36:30;9.50;;;5.50;;
5333;SDS011;2689;50.954;7.116;2023-11-18T11:39:04;7.40;;;6.27;;
5333;SDS011;2689;50.954;7.116;2023-11-18T11:41:50;9.93;;;6.17;;
5333;SDS011;2689;50.954;7.116;2023-11-18T11:44:21;10.73;;;7.30;;
5333;SDS011;2689;50.954;7.116;2023-11-18T11:46:55;9.13;;;5.80;;
5333;SDS011;2689;50.954;7.116;2023-11-18T11:49:26;6.83;;;4.80;;
5333;SDS011;2689;50.954;7.116;2023-11-18T11:52:02;6.10;;;4.70;;
5333;SDS011;2689;50.954;7.116;2023-11-18T11:54:34;8.63;;;5.53;;
5333;SDS011;2689;50.954;7.116;2023-11-18T11:57:04;6.30;;;5.57;;
5333;SDS011;2689;50.954;7.116;2023-11-18T12:02:25;5.63;;;4.50;;
5333;SDS011;2689;50.954;7.116;2023-11-18T12:04:54;7.40;;;5.00;;
5333;SDS011;2689;50.954;7.116;2023-11-18T12:07:24;7.33;;;4.10;;
5333;SDS011;2689;50.954;7.116;2023-11-18T12:09:56;9.50;;;6.07;;
5333;SDS011;2689;50.954;7.116;2023-11-18T12:12:25;8.57;;;4.93;;
5333;SDS011;2689;50.954;7.116;2023-11-18T12:14:53;6.83;;;4.77;;
5333;SDS011;2689;50.954;7.116;2023-11-18T12:17:24;7.70;;;5.23;;
5333;SDS011;2689;50.954;7.116;2023-11-18T12:19:57;8.07;;;5.57;;
5333;SDS011;2689;50.954;7.116;2023-11-18T12:22:25;8.20;;;5.30;;
5333;SDS011;2689;50.954;7.116;2023-11-18T12:28:11;8.77;;;5.40;;
5333;SDS011;2689;50.954;7.116;2023-11-18T12:30:42;12.10;;;5.67;;
5333;SDS011;2689;50.954;7.116;2023-11-18T12:40:02;8.00;;;3.83;;
5333;SDS011;2689;50.954;7.116;2023-11-18T12:42:58;7.77;;;4.60;;
5333;SDS011;2689;50.954;7.116;2023-11-18T12:48:41;8.37;;;4.70;;
5333;SDS011;2689;50.954;7.116;2023-11-18T12:51:12;11.23;;;4.23;;
5333;SDS011;2689;50.954;7.116;2023-11-18T12:53:45;3.30;;;2.57;;
5333;SDS011;2689;50.954;7.116;2023-11-18T12:56:14;5.77;;;3.87;;
5333;SDS011;2689;50.954;7.116;2023-11-18T12:58:41;7.50;;;4.97;;
5333;SDS011;2689;50.954;7.116;2023-11-18T13:01:08;10.80;;;4.90;;
5333;SDS011;2689;50.954;7.116;2023-11-18T13:03:39;13.23;;;5.73;;
5333;SDS011;2689;50.954;7.116;2023-11-18T13:06:07;9.80;;;5.70;;
5333;SDS011;2689;50.954;7.116;2023-11-18T13:08:35;8.10;;;5.83;;
5333;SDS011;2689;50.954;7.116;2023-11-18T13:11:03;8.83;;;6.50;;
5333;SDS011;2689;50.954;7.116;2023-11-18T13:13:30;13.10;;;6.40;;
5333;SDS011;2689;50.954;7.116;2023-11-18T13:15:59;11.43;;;5.60;;
5333;SDS011;2689;50.954;7.116;2023-11-18T13:18:27;11.90;;;6.97;;
5333;SDS011;2689;50.954;7.116;2023-11-18T13:21:13;10.53;;;6.50;;
5333;SDS011;2689;50.954;7.116;2023-11-18T13:23:47;8.00;;;4.90;;
5333;SDS011;2689;50.954;7.116;2023-11-18T13:26:15;13.13;;;7.57;;
5333;SDS011;2689;50.954;7.116;2023-11-18T13:28:42;9.20;;;5.10;;
5333;SDS011;2689;50.954;7.116;2023-11-18T13:31:09;7.23;;;4.87;;
5333;SDS011;2689;50.954;7.116;2023-11-18T13:33:37;6.20;;;3.90;;
5333;SDS011;2689;50.954;7.116;2023-11-18T13:36:04;6.73;;;4.73;;
5333;SDS011;2689;50.954;7.116;2023-11-18T13:38:35;8.20;;;4.70;;
5333;SDS011;2689;50.954;7.116;2023-11-18T13:41:04;8.30;;;5.07;;
5333;SDS011;2689;50.954;7.116;2023-11-18T13:43:43;7.50;;;5.00;;
5333;SDS011;2689;50.954;7.116;2023-11-18T13:46:12;10.40;;;5.43;;
5333;SDS011;2689;50.954;7.116;2023-11-18T13:48:39;9.70;;;5.50;;
5333;SDS011;2689;50.954;7.116;2023-11-18T13:51:07;9.50;;;4.90;;
5333;SDS011;2689;50.954;7.116;2023-11-18T13:53:39;7.63;;;4.50;;
5333;SDS011;2689;50.954;7.116;2023-11-18T13:56:10;7.63;;;5.27;;
5333;SDS011;2689;50.954;7.116;2023-11-18T13:58:37;6.50;;;4.23;;
5333;SDS011;2689;50.954;7.116;2023-11-18T14:01:05;4.17;;;2.83;;
5333;SDS011;2689;50.954;7.116;2023-11-18T14:03:34;4.03;;;3.17;;
5333;SDS011;2689;50.954;7.116;2023-11-18T14:06:02;5.50;;;2.67;;
5333;SDS011;2689;50.954;7.116;2023-11-18T14:08:29;5.50;;;3.90;;
5333;SDS011;2689;50.954;7.116;2023-11-18T14:10:56;8.73;;;3.80;;
5333;SDS011;2689;50.954;7.116;2023-11-18T14:13:24;8.80;;;4.87;;
5333;SDS011;2689;50.954;7.116;2023-11-18T14:15:53;9.10;;;4.83;;
5333;SDS011;2689;50.954;7.116;2023-11-18T14:18:22;5.40;;;4.30;;
5333;SDS011;2689;50.954;7.116;2023-11-18T14:20:49;11.83;;;5.43;;
5333;SDS011;2689;50.954;7.116;2023-11-18T14:23:16;8.53;;;4.90;;
5333;SDS011;2689;50.954;7.116;2023-11-18T14:25:43;6.53;;;3.90;;
5333;SDS011;2689;50.954;7.116;2023-11-18T14:28:10;7.83;;;3.20;;
5333;SDS011;2689;50.954;7.116;2023-11-18T14:30:39;11.70;;;4.77;;
5333;SDS011;2689;50.954;7.116;2023-11-18T14:33:07;5.50;;;3.13;;
5333;SDS011;2689;50.954;7.116;2023-11-18T14:35:33;7.53;;;4.67;;
5333;SDS011;2689;50.954;7.116;2023-11-18T14:38:00;6.30;;;3.73;;
5333;SDS011;2689;50.954;7.116;2023-11-18T14:40:33;4.77;;;4.27;;
5333;SDS011;2689;50.954;7.116;2023-11-18T14:43:00;4.80;;;3.60;;
5333;SDS011;2689;50.954;7.116;2023-11-18T14:45:27;9.33;;;4.40;;
5333;SDS011;2689;50.954;7.116;2023-11-18T14:47:57;5.23;;;3.40;;
5333;SDS011;2689;50.954;7.116;2023-11-18T14:50:24;7.60;;;3.90;;
5333;SDS011;2689;50.954;7.116;2023-11-18T14:52:52;5.70;;;3.97;;
5333;SDS011;2689;50.954;7.116;2023-11-18T14:55:24;3.17;;;2.30;;
5333;SDS011;2689;50.954;7.116;2023-11-18T14:57:52;9.77;;;5.20;;
5333;SDS011;2689;50.954;7.116;2023-11-18T15:00:20;4.93;;;2.90;;
5333;SDS011;2689;50.954;7.116;2023-11-18T15:02:50;7.90;;;4.50;;
5333;SDS011;2689;50.954;7.116;2023-11-18T15:05:19;6.70;;;3.57;;
5333;SDS011;2689;50.954;7.116;2023-11-18T15:07:46;4.27;;;3.40;;
5333;SDS011;2689;50.954;7.116;2023-11-18T15:10:16;7.87;;;3.90;;
5333;SDS011;2689;50.954;7.116;2023-11-18T15:12:46;6.10;;;3.00;;
5333;SDS011;2689;50.954;7.116;2023-11-18T15:15:13;9.83;;;4.80;;
5333;SDS011;2689;50.954;7.116;2023-11-18T15:17:44;9.70;;;3.80;;
5333;SDS011;2689;50.954;7.116;2023-11-18T15:20:11;8.40;;;3.13;;
5333;SDS011;2689;50.954;7.116;2023-11-18T15:22:41;5.07;;;3.27;;
5333;SDS011;2689;50.954;7.116;2023-11-18T15:25:11;7.10;;;4.47;;